createdAt,value
2023-01-26T00:04:40.963Z,98.83
2023-01-26T00:07:09.541Z,98.98
2023-01-26T00:09:38.196Z,99.47
2023-01-26T00:12:06.542Z,99.76
2023-01-26T00:14:50.136Z,99.46
2023-01-26T00:17:26.330Z,99.32
2023-01-26T00:19:58.986Z,99.46
2023-01-26T00:22:30.177Z,99.22
2023-01-26T00:25:01.344Z,99.08
2023-01-26T00:27:32.352Z,98.88
2023-01-26T00:30:02.072Z,98.41
2023-01-26T00:32:36.195Z,97.91
2023-01-26T00:35:05.571Z,98.05
2023-01-26T00:37:33.837Z,98.29
2023-01-26T00:40:01.827Z,98.29
2023-01-26T00:42:30.163Z,98.17
2023-01-26T00:44:58.408Z,98.35
2023-01-26T00:47:26.685Z,98.01
2023-01-26T00:49:54.822Z,97.77
2023-01-26T00:52:23.007Z,97.40
2023-01-26T00:54:51.584Z,97.52
2023-01-26T00:57:19.914Z,97.21
2023-01-26T00:59:48.085Z,97.10
2023-01-26T01:02:16.320Z,96.54
2023-01-26T01:04:44.611Z,96.67
2023-01-26T01:07:13.117Z,96.56
2023-01-26T01:09:41.089Z,96.71
2023-01-26T01:12:09.240Z,96.70
2023-01-26T01:14:38.640Z,96.95
2023-01-26T01:17:06.695Z,97.12
2023-01-26T01:19:38.253Z,97.14
2023-01-26T01:22:07.131Z,97.19
2023-01-26T01:24:35.485Z,96.93
2023-01-26T01:27:03.644Z,96.76
2023-01-26T01:29:31.752Z,97.05
2023-01-26T01:32:00.275Z,97.17
2023-01-26T01:34:29.203Z,96.96
2023-01-26T01:36:58.784Z,96.74
2023-01-26T01:39:27.456Z,96.85
2023-01-26T01:41:55.519Z,96.87
2023-01-26T01:44:25.658Z,96.45
2023-01-26T01:46:57.433Z,95.84
2023-01-26T01:49:28.529Z,95.84
2023-01-26T01:52:10.776Z,95.97
2023-01-26T01:54:44.462Z,95.63
2023-01-26T01:57:17.685Z,95.67
2023-01-26T01:59:52.169Z,95.60
2023-01-26T02:02:20.711Z,95.79
2023-01-26T02:04:49.340Z,95.59
2023-01-26T02:07:17.455Z,95.47
2023-01-26T02:10:04.888Z,95.30
2023-01-26T02:12:33.113Z,95.16
2023-01-26T02:15:01.092Z,95.07
2023-01-26T02:17:30.543Z,95.23
2023-01-26T02:20:07.350Z,95.45
2023-01-26T02:23:02.255Z,95.50
2023-01-26T02:25:30.356Z,95.58
2023-01-26T02:27:58.599Z,95.27
2023-01-26T02:30:27.850Z,95.28
2023-01-26T02:32:55.915Z,95.07
2023-01-26T02:35:26.817Z,95.22
2023-01-26T02:37:55.781Z,95.16
2023-01-26T02:40:40.322Z,94.89
2023-01-26T02:43:08.609Z,94.97
2023-01-26T02:45:38.991Z,95.05
2023-01-26T02:48:09.451Z,95.13
2023-01-26T02:50:37.986Z,95.20
2023-01-26T02:53:06.770Z,95.07
2023-01-26T02:55:34.870Z,95.46
2023-01-26T02:58:04.831Z,94.95
2023-01-26T03:00:37.446Z,94.89
2023-01-26T03:03:12.186Z,95.09
2023-01-26T03:05:42.504Z,94.92
2023-01-26T03:08:10.723Z,94.92
2023-01-26T03:19:04.581Z,94.91
2023-01-26T03:21:52.426Z,94.99
2023-01-26T03:24:49.856Z,94.95
2023-01-26T03:27:26.711Z,94.79
2023-01-26T03:29:58.491Z,95.24
2023-01-26T03:32:30.795Z,95.15
2023-01-26T03:35:01.576Z,95.24
2023-01-26T03:37:36.985Z,95.38
2023-01-26T03:40:30.657Z,95.41
2023-01-26T03:43:17.733Z,94.97
2023-01-26T03:46:04.833Z,95.17
2023-01-26T03:48:52.792Z,94.59
2023-01-26T03:51:39.670Z,94.66
2023-01-26T03:54:26.868Z,94.69
2023-01-26T03:56:55.024Z,94.65
2023-01-26T03:59:38.237Z,94.51
2023-01-26T04:02:31.724Z,94.29
2023-01-26T04:05:19.543Z,94.31
2023-01-26T04:08:09.581Z,94.49
2023-01-26T04:10:37.988Z,94.29
2023-01-26T04:13:28.217Z,93.78
2023-01-26T04:16:20.930Z,93.68
2023-01-26T11:51:10.212Z,92.87
2023-01-26T11:53:52.859Z,92.58
2023-01-26T11:56:49.563Z,91.88
2023-01-26T11:59:36.980Z,91.41
2023-01-26T12:02:21.900Z,90.94
2023-01-26T12:04:52.125Z,90.49
2023-01-26T12:07:58.946Z,90.02
2023-01-26T12:10:55.033Z,90.35
2023-01-26T12:20:49.449Z,88.38
2023-01-26T12:23:30.030Z,88.08
2023-01-26T12:26:04.984Z,87.72
2023-01-26T12:28:54.974Z,87.50
2023-01-26T12:31:27.148Z,87.76
2023-01-26T12:33:56.722Z,88.13
2023-01-26T12:36:55.817Z,88.19
2023-01-26T12:40:07.975Z,88.59
2023-01-26T12:42:42.530Z,88.53
2023-01-26T12:45:18.683Z,88.42
2023-01-26T12:47:56.857Z,87.80
2023-01-26T12:50:31.120Z,87.69
2023-01-26T12:53:06.800Z,87.24
2023-01-26T12:55:44.802Z,86.90
2023-01-26T12:58:18.937Z,86.82
2023-01-26T13:01:05.074Z,86.44
2023-01-26T13:03:59.643Z,86.44
2023-01-26T13:06:28.522Z,85.93
2023-01-26T13:09:20.653Z,85.85
2023-01-26T13:11:54.385Z,85.81
2023-01-26T13:14:25.413Z,85.73
2023-01-26T13:16:55.604Z,85.79
2023-01-26T13:19:48.145Z,85.93
2023-01-26T13:22:19.817Z,85.83
2023-01-26T13:25:08.476Z,85.40
2023-01-26T13:27:54.578Z,85.40
2023-01-26T13:30:23.947Z,85.44
2023-01-26T13:32:54.062Z,85.42
2023-01-26T13:35:25.955Z,85.27
2023-01-26T13:37:58.301Z,85.38
2023-01-26T13:40:43.765Z,85.39
2023-01-26T13:43:27.551Z,85.77
2023-01-26T13:46:09.173Z,85.66
2023-01-26T13:48:46.044Z,85.95
2023-01-26T13:51:32.869Z,86.19
2023-01-26T13:54:13.844Z,86.07
2023-01-26T22:06:49.895Z,100.00
2023-01-26T22:09:21.442Z,100.00
2023-01-26T22:11:51.168Z,100.00
2023-01-26T22:22:33.040Z,100.00
2023-01-26T22:25:01.599Z,100.00
2023-01-26T22:27:30.111Z,100.00
2023-01-26T22:29:58.958Z,100.00
2023-01-26T22:32:27.420Z,100.00
2023-01-26T22:34:55.574Z,100.00
2023-01-26T22:37:24.727Z,100.00
2023-01-26T22:39:52.913Z,100.00
2023-01-26T22:42:21.870Z,100.00
2023-01-26T22:44:50.492Z,100.00
2023-01-26T22:47:19.007Z,99.87
2023-01-26T22:49:47.347Z,99.35
2023-01-26T22:52:16.259Z,99.10
2023-01-26T22:54:45.194Z,98.80
2023-01-26T22:57:15.876Z,98.82
2023-01-26T22:59:44.043Z,98.56
2023-01-26T23:02:15.196Z,98.22
2023-01-26T23:04:43.591Z,98.02
2023-01-26T23:07:11.890Z,97.59
2023-01-26T23:09:39.888Z,97.09
2023-01-26T23:12:08.358Z,97.15
2023-01-26T23:14:36.380Z,97.40
2023-01-26T23:17:05.649Z,97.46
2023-01-26T23:19:34.389Z,97.18
2023-01-26T23:22:02.576Z,97.20
2023-01-26T23:24:30.800Z,96.68
2023-01-26T23:26:58.822Z,96.86
2023-01-26T23:29:27.016Z,96.98
2023-01-26T23:31:55.053Z,97.17
2023-01-26T23:34:23.137Z,97.65
2023-01-26T23:36:51.271Z,97.79
2023-01-26T23:39:21.775Z,97.93
2023-01-26T23:41:49.864Z,98.25
2023-01-26T23:44:20.152Z,98.66
2023-01-26T23:46:48.572Z,98.73
2023-01-26T23:49:16.715Z,98.79
2023-01-26T23:51:44.718Z,99.10
2023-01-26T23:54:12.937Z,98.93
2023-01-26T23:56:40.932Z,99.43
2023-01-26T23:59:08.903Z,99.46
